Time;durP1;ratioP1;P1;durP2;ratioP2;P2;SDS_P1;SDS_P2;PMS_P1;PMS_P2;Temp;Humidity;BMP_temperature;BMP_pressure;BME280_temperature;BME280_humidity;BME280_pressure;Samples;Min_cycle;Max_cycle;Signal;HPM_P1;HPM_P2
2023/02/01 00:02:02;;;;;;;;;9.25;6.50;;;;;10.32;100.00;102450.31;5097383;27;45489;-70
2023/02/01 00:04:27;;;;;;;;;5.33;5.33;;;;;10.31;100.00;102443.22;5097400;27;45473;-70
2023/02/01 00:06:53;;;;;;;;;8.75;7.75;;;;;10.33;100.00;102452.09;5089860;27;45575;-70
2023/02/01 00:09:18;;;;;;;;;7.75;7.75;;;;;10.33;100.00;102452.09;5097083;27;55918;-70
2023/02/01 00:11:44;;;;;;;;;4.25;4.25;;;;;10.34;100.00;102454.81;5117592;27;45227;-70
2023/02/01 00:14:09;;;;;;;;;10.00;7.00;;;;;10.33;100.00;102441.53;5101013;27;45553;-71
2023/02/01 00:16:35;;;;;;;;;8.50;8.25;;;;;10.32;100.00;102447.66;5118223;27;46308;-70
2023/02/01 00:19:12;;;;;;;;;8.50;7.75;;;;;10.31;100.00;102446.78;5117323;27;58317;-69
2023/02/01 00:21:37;;;;;;;;;9.25;4.50;;;;;10.31;100.00;102427.41;5098716;27;46994;-70
2023/02/01 00:24:03;;;;;;;;;9.75;8.50;;;;;10.27;100.00;102425.47;5100417;27;47142;-70
2023/02/01 00:26:48;;;;;;;;;4.25;4.25;;;;;10.22;100.00;102427.91;5117653;27;46310;-69
2023/02/01 00:29:16;;;;;;;;;6.00;3.50;;;;;10.19;100.00;102422.53;5092829;27;45399;-70
2023/02/01 00:31:42;;;;;;;;;6.50;6.50;;;;;10.12;100.00;102409.91;5088962;27;45457;-70
2023/02/01 00:34:17;;;;;;;;;4.25;3.75;;;;;10.07;100.00;102420.31;5099608;27;45539;-70
2023/02/01 00:36:44;;;;;;;;;7.00;5.50;;;;;10.02;100.00;102408.69;5099323;27;46585;-71
2023/02/01 00:39:09;;;;;;;;;7.00;4.50;;;;;10.02;100.00;102415.72;5079975;27;45589;-69
2023/02/01 00:41:35;;;;;;;;;5.00;4.00;;;;;9.97;100.00;102421.69;5116859;27;56087;-69
2023/02/01 00:44:01;;;;;;;;;4.00;4.00;;;;;9.91;100.00;102424.09;5117950;27;45381;-70
2023/02/01 00:46:27;;;;;;;;;4.75;4.75;;;;;9.92;100.00;102417.09;5116886;27;45493;-71
2023/02/01 00:48:52;;;;;;;;;2.00;2.00;;;;;9.90;100.00;102422.28;5114024;27;45983;-70
2023/02/01 00:51:21;;;;;;;;;8.50;4.00;;;;;9.90;100.00;102414.34;5097356;27;45312;-70
2023/02/01 00:53:46;;;;;;;;;4.75;3.25;;;;;9.93;100.00;102422.41;5110091;27;46220;-71
2023/02/01 00:56:12;;;;;;;;;5.75;3.50;;;;;9.96;100.00;102429.56;5092788;27;46427;-70
2023/02/01 00:58:38;;;;;;;;;4.00;2.75;;;;;9.99;100.00;102427.03;5095356;27;46151;-70
2023/02/01 01:01:10;;;;;;;;;4.00;4.00;;;;;10.00;100.00;102426.19;5117177;27;45993;-70
2023/02/01 01:03:42;;;;;;;;;3.50;3.50;;;;;10.04;100.00;102429.84;5116883;27;45400;-69
2023/02/01 01:06:10;;;;;;;;;6.00;3.00;;;;;10.07;100.00;102443.19;5108434;27;46607;-70
2023/02/01 01:08:36;;;;;;;;;6.25;3.75;;;;;10.10;100.00;102445.91;5103434;27;45727;-70
2023/02/01 01:11:12;;;;;;;;;7.00;4.00;;;;;10.11;100.00;102445.06;5099519;27;45540;-70
2023/02/01 01:13:38;;;;;;;;;3.00;3.00;;;;;10.06;100.00;102436.06;5114561;27;45675;-71
2023/02/01 01:16:05;;;;;;;;;6.50;3.25;;;;;10.03;100.00;102443.88;5112577;27;55090;-69
2023/02/01 01:18:31;;;;;;;;;7.00;3.67;;;;;10.01;100.00;102443.81;5117359;27;45453;-70
2023/02/01 01:20:57;;;;;;;;;2.75;2.75;;;;;10.02;100.00;102444.72;5089548;27;45533;-69
2023/02/01 01:23:23;;;;;;;;;4.00;2.00;;;;;10.03;100.00;102447.41;5116629;27;45508;-70
2023/02/01 01:25:49;;;;;;;;;11.25;6.00;;;;;9.99;100.00;102440.22;5116698;27;59240;-70
2023/02/01 01:28:14;;;;;;;;;3.00;3.00;;;;;10.04;100.00;102446.56;5116589;27;45456;-70
2023/02/01 01:30:39;;;;;;;;;7.00;3.00;;;;;10.03;100.00;102446.53;5115846;27;58118;-70
2023/02/01 01:33:05;;;;;;;;;4.00;4.00;;;;;10.08;100.00;102448.50;5116321;27;54509;-70
2023/02/01 01:35:31;;;;;;;;;7.50;2.25;;;;;10.05;100.00;102448.38;5114407;27;46886;-70
2023/02/01 01:37:58;;;;;;;;;10.00;3.00;;;;;10.06;100.00;102446.63;5099264;27;45397;-70
2023/02/01 01:40:24;;;;;;;;;4.75;3.00;;;;;10.03;100.00;102447.41;5116459;27;45420;-69
2023/02/01 01:42:53;;;;;;;;;8.00;3.33;;;;;10.06;100.00;102446.63;5118467;27;45393;-70
2023/02/01 01:45:18;;;;;;;;;3.25;3.00;;;;;10.07;100.00;102454.63;5117526;27;46802;-70
2023/02/01 01:47:48;;;;;;;;;7.00;3.00;;;;;10.07;100.00;102457.28;5113165;27;45449;-71
2023/02/01 01:50:17;;;;;;;;;3.33;3.33;;;;;10.11;100.00;102453.88;5098891;27;45425;-70
2023/02/01 01:52:44;;;;;;;;;3.00;3.00;;;;;10.10;100.00;102456.47;5116237;27;45302;-69
2023/02/01 01:55:10;;;;;;;;;3.00;3.00;;;;;10.13;100.00;102453.97;5089720;27;60225;-70
2023/02/01 01:57:38;;;;;;;;;6.50;3.50;;;;;10.12;100.00;102457.41;5089131;27;45575;-70
2023/02/01 02:00:08;;;;;;;;;4.00;2.00;;;;;10.06;100.00;102458.06;5092221;27;45385;-69
2023/02/01 02:02:34;;;;;;;;;5.33;3.00;;;;;10.09;100.00;102473.16;5113001;27;45592;-70
2023/02/01 02:05:00;;;;;;;;;6.00;2.00;;;;;10.08;100.00;102471.38;5112412;27;46842;-69
2023/02/01 02:07:30;;;;;;;;;3.00;3.00;;;;;10.03;100.00;102457.97;5109000;27;58709;-70
2023/02/01 02:09:56;;;;;;;;;2.00;2.00;;;;;10.06;100.00;102452.81;5091875;27;45516;-70
2023/02/01 02:12:22;;;;;;;;;3.00;2.00;;;;;10.08;100.00;102455.53;5099059;27;45510;-70
2023/02/01 02:14:47;;;;;;;;;3.67;2.00;;;;;10.08;100.00;102459.06;5108651;27;46419;-70
2023/02/01 02:17:25;;;;;;;;;5.00;2.00;;;;;10.11;100.00;102458.25;5111417;27;54896;-70
2023/02/01 02:20:05;;;;;;;;;5.33;2.00;;;;;10.11;100.00;102448.59;5097330;27;45433;-70
2023/02/01 02:22:58;;;;;;;;;1.00;1.00;;;;;10.11;100.00;102453.88;5092715;27;45441;-70
2023/02/01 02:25:32;;;;;;;;;4.25;4.25;;;;;10.14;100.00;102455.75;5115351;27;46553;-70
2023/02/01 02:28:06;;;;;;;;;3.67;2.00;;;;;10.14;100.00;102450.47;5113053;27;45377;-70
2023/02/01 02:30:55;;;;;;;;;3.33;1.00;;;;;10.16;100.00;102449.69;5108285;27;45461;-70
2023/02/01 02:33:46;;;;;;;;;6.00;1.00;;;;;10.19;100.00;102441.00;5096817;27;46476;-70
2023/02/01 02:36:52;;;;;;;;;6.00;1.00;;;;;10.18;100.00;102434.81;5095464;27;45905;-70
2023/02/01 02:39:42;;;;;;;;;2.67;2.67;;;;;10.14;100.00;102439.91;5096047;27;45451;-71
2023/02/01 02:48:17;;;;;;;;;2.33;1.67;;;;;10.07;100.00;102432.63;5114525;27;45418;-70
2023/02/01 03:04:58;;;;;;;;;2.00;1.00;;;;;9.99;100.00;102458.69;5115488;27;45513;-70
2023/02/01 03:07:49;;;;;;;;;2.33;1.00;;;;;9.93;100.00;102462.00;5116257;27;57785;-69
2023/02/01 03:10:27;;;;;;;;;5.75;1.50;;;;;9.91;100.00;102457.50;5091189;27;46705;-69
2023/02/01 03:12:56;;;;;;;;;2.67;1.00;;;;;9.93;100.00;102445.25;5112832;27;45299;-70
2023/02/01 03:15:32;;;;;;;;;1.00;1.00;;;;;9.93;100.00;102448.78;5094965;27;45442;-69
2023/02/01 03:17:59;;;;;;;;;1.00;1.00;;;;;9.93;100.00;102447.91;5097169;27;45392;-69
2023/02/01 03:20:25;;;;;;;;;2.00;1.00;;;;;9.95;100.00;102465.56;5093545;27;46319;-70
2023/02/01 03:22:52;;;;;;;;;3.00;1.00;;;;;9.96;100.00;102480.59;5109541;27;60395;-70
2023/02/01 03:25:25;;;;;;;;;2.67;2.00;;;;;9.97;100.00;102460.38;5109590;27;54557;-69
2023/02/01 03:27:55;;;;;;;;;3.33;1.00;;;;;9.96;100.00;102453.31;5098193;27;45483;-69
2023/02/01 03:30:25;;;;;;;;;1.33;1.33;;;;;9.97;100.00;102448.09;5100312;27;46197;-69
2023/02/01 03:32:58;;;;;;;;;1.33;1.00;;;;;9.99;100.00;102456.06;5101619;27;45517;-70
2023/02/01 03:35:48;;;;;;;;;2.33;2.33;;;;;10.01;100.00;102470.19;5112676;27;45385;-70
2023/02/01 03:38:37;;;;;;;;;2.00;2.00;;;;;10.01;100.00;102457.00;5090616;27;45544;-70
2023/02/01 03:41:12;;;;;;;;;6.00;1.00;;;;;10.03;100.00;102463.25;5112822;27;45585;-71
2023/02/01 03:43:52;;;;;;;;;2.33;1.00;;;;;10.06;100.00;102457.19;5117293;27;45399;-70
2023/02/01 03:46:22;;;;;;;;;4.00;1.33;;;;;10.08;100.00;102458.16;5116948;27;45425;-70
2023/02/01 03:48:49;;;;;;;;;3.00;1.00;;;;;10.06;100.00;102446.63;5097072;27;45381;-70
2023/02/01 03:51:15;;;;;;;;;6.33;2.00;;;;;10.08;100.00;102451.16;5098213;27;46750;-71
2023/02/01 03:53:42;;;;;;;;;4.50;2.00;;;;;10.07;100.00;102445.81;5092556;27;59857;-70
2023/02/01 03:56:08;;;;;;;;;4.00;1.00;;;;;10.07;100.00;102448.44;5092510;27;45353;-71
2023/02/01 03:58:37;;;;;;;;;1.33;1.33;;;;;10.06;100.00;102447.53;5113846;27;45500;-70
2023/02/01 04:01:02;;;;;;;;;3.00;1.00;;;;;10.05;100.00;102456.28;5098445;27;46664;-71
2023/02/01 04:03:28;;;;;;;;;2.00;1.67;;;;;10.07;100.00;102472.22;5115593;27;54236;-71
2023/02/01 04:05:54;;;;;;;;;3.00;0.33;;;;;10.07;100.00;102456.38;5100143;27;45227;-69
2023/02/01 04:08:20;;;;;;;;;2.00;1.00;;;;;10.07;100.00;102453.72;5118258;27;45401;-70
2023/02/01 04:10:45;;;;;;;;;7.33;2.67;;;;;10.09;100.00;102447.66;5118791;27;46117;-71
2023/02/01 04:13:11;;;;;;;;;4.67;1.00;;;;;10.11;100.00;102455.63;5100362;27;45480;-70
2023/02/01 04:15:36;;;;;;;;;1.00;1.00;;;;;10.10;100.00;102460.00;5109882;27;45594;-70
2023/02/01 04:18:02;;;;;;;;;5.67;1.67;;;;;10.13;100.00;102456.59;5113141;27;54969;-71
2023/02/01 04:20:27;;;;;;;;;3.25;3.00;;;;;10.14;100.00;102459.28;5116031;27;59704;-70
2023/02/01 04:22:53;;;;;;;;;10.00;2.33;;;;;10.13;100.00;102452.22;5097260;27;45497;-70
2023/02/01 04:25:18;;;;;;;;;3.33;1.00;;;;;10.14;100.00;102463.69;5093696;27;45322;-71
2023/02/01 04:27:44;;;;;;;;;3.00;1.33;;;;;10.18;100.00;102473.53;5108635;27;50055;-71
2023/02/01 04:30:10;;;;;;;;;0.00;0.00;;;;;10.18;100.00;102465.59;5111803;27;62571;-70
2023/02/01 04:32:37;;;;;;;;;6.67;2.00;;;;;10.15;100.00;102458.44;5108947;27;45402;-70
2023/02/01 04:35:03;;;;;;;;;3.25;2.00;;;;;10.16;100.00;102467.25;5115999;27;45397;-71
2023/02/01 04:37:28;;;;;;;;;5.33;2.00;;;;;10.12;100.00;102453.06;5113562;27;45421;-70
2023/02/01 04:39:54;;;;;;;;;2.00;1.00;;;;;10.08;100.00;102456.41;5115276;27;45603;-70
2023/02/01 04:42:19;;;;;;;;;5.33;1.00;;;;;10.02;100.00;102455.28;5116125;27;45613;-70
2023/02/01 04:44:45;;;;;;;;;2.67;0.00;;;;;9.96;100.00;102461.22;5100034;27;45543;-70
2023/02/01 04:47:10;;;;;;;;;1.00;1.00;;;;;9.90;100.00;102464.50;5096972;27;50876;-69
2023/02/01 04:49:35;;;;;;;;;1.00;0.00;;;;;9.83;100.00;102462.47;5112891;27;61632;-70
2023/02/01 04:52:01;;;;;;;;;3.50;2.25;;;;;9.80;100.00;102465.00;5116663;27;45421;-70
2023/02/01 04:54:26;;;;;;;;;2.33;1.00;;;;;9.75;100.00;102466.53;5098710;27;51369;-70
2023/02/01 04:56:51;;;;;;;;;1.00;1.00;;;;;9.75;100.00;102479.72;5112712;27;54764;-69
2023/02/01 04:59:17;;;;;;;;;1.00;1.00;;;;;9.71;100.00;102488.34;5115087;27;56399;-69
2023/02/01 05:01:42;;;;;;;;;3.00;1.50;;;;;9.65;100.00;102490.75;5109579;27;52776;-71
2023/02/01 05:04:07;;;;;;;;;3.00;0.00;;;;;9.61;100.00;102486.16;5111338;27;53060;-70
2023/02/01 05:06:33;;;;;;;;;2.33;1.00;;;;;9.60;100.00;102487.00;5095281;27;45560;-71
2023/02/01 05:08:58;;;;;;;;;7.00;2.33;;;;;9.55;100.00;102489.44;5111120;27;59850;-70
2023/02/01 05:14:07;;;;;;;;;2.00;2.00;;;;;9.45;100.00;102485.53;5102466;27;45466;-70
2023/02/01 05:16:33;;;;;;;;;2.75;2.00;;;;;9.44;100.00;102474.91;5117235;27;54086;-70
2023/02/01 05:18:58;;;;;;;;;2.00;2.00;;;;;9.41;100.00;102488.84;5115419;27;62842;-71
2023/02/01 05:21:24;;;;;;;;;2.25;1.00;;;;;9.41;100.00;102498.50;5115713;27;45515;-70
2023/02/01 05:26:33;;;;;;;;;2.00;0.67;;;;;9.41;100.00;102485.31;5115546;27;45279;-70
2023/02/01 05:28:59;;;;;;;;;2.00;1.00;;;;;9.45;100.00;102493.44;5111536;27;45783;-71
2023/02/01 05:31:24;;;;;;;;;1.67;1.00;;;;;9.47;100.00;102487.31;5117438;27;45500;-70
2023/02/01 05:33:50;;;;;;;;;6.25;2.50;;;;;9.53;100.00;102484.94;5113054;27;45234;-69
2023/02/01 05:36:15;;;;;;;;;4.00;2.00;;;;;9.55;100.00;102494.72;5109022;27;45399;-69
2023/02/01 05:38:41;;;;;;;;;3.25;1.00;;;;;9.56;100.00;102503.53;5117212;27;63448;-70
2023/02/01 05:41:06;;;;;;;;;2.25;2.00;;;;;9.60;100.00;102498.47;5093708;27;45425;-70
2023/02/01 05:43:32;;;;;;;;;1.33;1.00;;;;;9.64;100.00;102499.47;5115719;27;54784;-70
2023/02/01 05:45:57;;;;;;;;;1.00;1.00;;;;;9.67;100.00;102494.31;5113902;27;52573;-70
2023/02/01 05:48:22;;;;;;;;;4.67;1.00;;;;;9.67;100.00;102497.84;5115530;27;57842;-71
2023/02/01 05:50:48;;;;;;;;;1.00;1.00;;;;;9.67;100.00;102497.84;5097730;27;45532;-70
2023/02/01 05:53:13;;;;;;;;;3.25;1.00;;;;;9.68;100.00;102494.38;5114824;27;49744;-70
2023/02/01 05:55:38;;;;;;;;;3.33;1.00;;;;;9.70;100.00;102494.47;5114883;27;51073;-71
2023/02/01 05:58:05;;;;;;;;;4.00;1.00;;;;;9.68;100.00;102489.09;5094562;27;53746;-71
2023/02/01 06:00:30;;;;;;;;;6.67;1.00;;;;;9.69;100.00;102501.47;5115518;27;45607;-70
2023/02/01 06:02:56;;;;;;;;;0.33;0.33;;;;;9.67;100.00;102495.22;5107379;27;45427;-71
2023/02/01 06:05:21;;;;;;;;;1.67;1.00;;;;;9.70;100.00;102507.66;5098301;27;51655;-71
2023/02/01 06:07:47;;;;;;;;;1.00;1.00;;;;;9.71;100.00;102507.72;5090745;27;46538;-70
2023/02/01 06:10:12;;;;;;;;;3.00;2.00;;;;;9.68;100.00;102493.47;5114509;27;45462;-71
2023/02/01 06:12:38;;;;;;;;;3.00;1.33;;;;;9.64;100.00;102510.00;5108061;27;45437;-71
2023/02/01 06:15:04;;;;;;;;;3.33;1.00;;;;;9.57;100.00;102507.97;5117645;27;45613;-70
2023/02/01 06:17:29;;;;;;;;;3.33;1.67;;;;;9.50;100.00;102511.19;5117477;27;45401;-70
2023/02/01 06:19:54;;;;;;;;;1.00;1.00;;;;;9.50;100.00;102513.81;5120258;27;45344;-72
2023/02/01 06:22:21;;;;;;;;;2.75;1.50;;;;;9.51;100.00;102511.25;5088899;27;47436;-71
2023/02/01 06:24:46;;;;;;;;;1.67;1.67;;;;;9.55;100.00;102509.66;5101234;27;45993;-71
2023/02/01 06:27:13;;;;;;;;;1.25;0.25;;;;;9.60;100.00;102519.56;5100934;27;45592;-71
2023/02/01 06:29:38;;;;;;;;;2.00;1.00;;;;;9.62;100.00;102506.41;5102618;27;45527;-71
2023/02/01 06:32:04;;;;;;;;;2.00;0.67;;;;;9.63;100.00;102500.31;5091287;27;46067;-70
2023/02/01 06:34:29;;;;;;;;;1.50;1.00;;;;;9.62;100.00;102506.41;5088140;27;45612;-69
2023/02/01 06:36:55;;;;;;;;;3.50;1.25;;;;;9.58;100.00;102500.09;5097917;27;61685;-70
2023/02/01 06:39:20;;;;;;;;;3.50;2.00;;;;;9.59;100.00;102495.75;5101464;27;49432;-71
2023/02/01 06:41:47;;;;;;;;;9.00;2.50;;;;;9.61;100.00;102499.34;5093948;27;45558;-70
2023/02/01 06:44:13;;;;;;;;;2.25;0.25;;;;;9.61;100.00;102502.00;5112270;27;45497;-70
2023/02/01 06:46:38;;;;;;;;;3.00;2.00;;;;;9.60;100.00;102511.63;5089913;27;45938;-70
2023/02/01 06:49:03;;;;;;;;;4.00;1.67;;;;;9.56;100.00;102514.09;5107600;27;56966;-70
2023/02/01 06:51:29;;;;;;;;;2.33;1.00;;;;;9.50;100.00;102516.47;5109233;27;53443;-71
2023/02/01 06:53:54;;;;;;;;;1.00;1.00;;;;;9.47;100.00;102526.88;5092681;27;45688;-69
2023/02/01 06:56:20;;;;;;;;;4.75;1.25;;;;;9.41;100.00;102515.22;5106931;27;46791;-69
2023/02/01 06:58:46;;;;;;;;;3.00;1.67;;;;;9.41;100.00;102523.13;5107411;27;45457;-70
2023/02/01 07:01:11;;;;;;;;;2.75;2.00;;;;;9.37;100.00;102531.75;5094535;27;45196;-72
2023/02/01 07:03:37;;;;;;;;;2.00;1.00;;;;;9.37;100.00;102531.75;5094580;27;45631;-70
2023/02/01 07:06:04;;;;;;;;;2.00;0.00;;;;;9.33;100.00;102531.56;5111693;27;46460;-72
2023/02/01 07:08:30;;;;;;;;;4.75;1.00;;;;;9.29;100.00;102529.63;5101344;27;45470;-72
2023/02/01 07:10:56;;;;;;;;;5.00;2.00;;;;;9.25;100.00;102517.13;5093319;27;45470;-73
2023/02/01 07:13:21;;;;;;;;;2.25;1.00;;;;;9.21;100.00;102517.84;5085067;27;45599;-71
2023/02/01 07:15:47;;;;;;;;;3.50;1.50;;;;;9.19;100.00;102530.94;5094671;27;48865;-70
2023/02/01 07:18:14;;;;;;;;;1.00;1.00;;;;;9.15;100.00;102545.72;5096360;27;45474;-72
2023/02/01 07:20:39;;;;;;;;;4.25;1.00;;;;;9.15;100.00;102547.47;5096550;27;45442;-70
2023/02/01 07:23:05;;;;;;;;;2.00;1.00;;;;;9.11;100.00;102558.72;5097733;27;45295;-69
2023/02/01 07:25:30;;;;;;;;;8.75;2.00;;;;;9.09;100.00;102561.25;5090642;27;61480;-69
2023/02/01 07:27:55;;;;;;;;;3.25;2.00;;;;;9.06;100.00;102554.97;5096631;27;45405;-71
2023/02/01 07:30:21;;;;;;;;;2.00;1.25;;;;;9.03;100.00;102561.00;5094690;27;50625;-70
2023/02/01 07:32:46;;;;;;;;;1.75;1.75;;;;;8.99;100.00;102558.16;5088485;27;45511;-70
2023/02/01 07:35:11;;;;;;;;;1.75;1.00;;;;;8.98;100.00;102566.88;5088874;27;59482;-70
2023/02/01 07:37:37;;;;;;;;;7.25;1.00;;;;;8.97;100.00;102566.00;5092079;27;45470;-70
2023/02/01 07:40:02;;;;;;;;;1.50;1.50;;;;;8.99;100.00;102579.22;5089321;27;46048;-71
2023/02/01 07:42:28;;;;;;;;;3.00;1.75;;;;;8.97;100.00;102571.25;5090880;27;45491;-71
2023/02/01 07:44:53;;;;;;;;;2.00;1.50;;;;;8.95;100.00;102588.75;5092215;27;58239;-72
2023/02/01 07:47:20;;;;;;;;;7.00;1.50;;;;;8.92;100.00;102586.84;5090850;27;55535;-71
2023/02/01 07:49:45;;;;;;;;;4.50;2.50;;;;;8.90;100.00;102595.53;5095416;27;45623;-69
2023/02/01 07:52:12;;;;;;;;;2.50;1.00;;;;;8.91;100.00;102594.69;5092040;27;55224;-69
2023/02/01 07:54:38;;;;;;;;;3.25;1.50;;;;;8.92;100.00;102599.13;5092058;27;45915;-70
2023/02/01 07:57:03;;;;;;;;;1.50;1.00;;;;;8.98;100.00;102598.50;5093906;27;55182;-69
2023/02/01 07:59:29;;;;;;;;;5.75;2.00;;;;;9.05;100.00;102606.75;5093090;27;46474;-68
2023/02/01 08:01:54;;;;;;;;;9.25;2.50;;;;;9.11;100.00;102604.41;5094700;27;54375;-69
2023/02/01 08:04:19;;;;;;;;;6.00;3.00;;;;;9.21;100.00;102615.34;5093742;27;56886;-69
2023/02/01 08:06:45;;;;;;;;;7.00;2.00;;;;;9.23;100.00;102611.97;5094798;27;45583;-69
2023/02/01 08:09:11;;;;;;;;;1.75;1.75;;;;;9.24;100.00;102597.94;5093159;27;45543;-69
2023/02/01 08:11:37;;;;;;;;;5.00;3.50;;;;;9.28;100.00;102599.00;5247588;22;45384;-69
2023/02/01 08:14:03;;;;;;;;;3.25;2.00;;;;;9.31;100.00;102593.84;5124194;27;46878;-69
2023/02/01 08:16:28;;;;;;;;;1.00;1.00;;;;;9.36;100.00;102595.84;5097014;27;46063;-69
2023/02/01 08:18:55;;;;;;;;;6.50;2.25;;;;;9.40;100.00;102592.53;5122620;27;45487;-69
2023/02/01 08:21:24;;;;;;;;;7.00;2.00;;;;;9.48;100.00;102592.88;5107314;27;45480;-69
2023/02/01 08:23:49;;;;;;;;;6.50;3.75;;;;;9.52;100.00;102588.63;5109880;27;46174;-68
2023/02/01 08:26:22;;;;;;;;;1.75;1.75;;;;;9.59;100.00;102586.31;5110275;27;45646;-69
2023/02/01 08:28:53;;;;;;;;;3.00;2.00;;;;;9.65;100.00;102575.13;5134998;27;45386;-69
2023/02/01 08:31:21;;;;;;;;;3.75;2.00;;;;;9.67;100.00;102574.34;5113623;27;47033;-69
2023/02/01 08:33:51;;;;;;;;;6.00;2.00;;;;;9.71;100.00;102580.66;5117071;27;45835;-69
2023/02/01 08:36:16;;;;;;;;;7.50;1.00;;;;;9.74;100.00;102569.34;5133426;27;45418;-69
2023/02/01 08:38:42;;;;;;;;;6.25;2.00;;;;;9.80;100.00;102559.03;5106093;27;45455;-69
2023/02/01 08:41:13;;;;;;;;;4.67;1.67;;;;;9.84;100.00;102558.31;5113716;27;45570;-69
2023/02/01 08:43:40;;;;;;;;;7.00;3.00;;;;;9.86;100.00;102554.94;5125519;27;45935;-69
2023/02/01 08:46:05;;;;;;;;;1.00;1.00;;;;;9.86;100.00;102538.22;5119889;27;45531;-69
2023/02/01 08:48:31;;;;;;;;;5.50;1.50;;;;;9.91;100.00;102544.56;5094557;27;45500;-69
2023/02/01 08:50:57;;;;;;;;;2.75;1.75;;;;;9.93;100.00;102543.78;5108052;27;45555;-69
2023/02/01 08:53:22;;;;;;;;;2.00;2.00;;;;;9.98;100.00;102542.22;5094977;27;46350;-69
2023/02/01 08:55:48;;;;;;;;;2.33;1.00;;;;;10.03;100.00;102544.16;5099487;27;45504;-69
2023/02/01 08:58:14;;;;;;;;;6.25;2.00;;;;;10.06;100.00;102547.81;5120572;27;45970;-69
2023/02/01 09:00:40;;;;;;;;;3.00;1.00;;;;;10.08;100.00;102539.97;5122438;27;45484;-69
2023/02/01 09:03:05;;;;;;;;;5.75;2.00;;;;;10.09;100.00;102541.78;5134608;27;45736;-69
2023/02/01 09:05:31;;;;;;;;;4.00;2.25;;;;;10.12;100.00;102548.09;5126199;27;56988;-69
2023/02/01 09:07:56;;;;;;;;;6.50;2.75;;;;;10.13;100.00;102551.63;5125569;27;45598;-68
2023/02/01 09:10:21;;;;;;;;;2.00;1.75;;;;;10.18;100.00;102555.34;5121624;27;45528;-69
2023/02/01 09:12:47;;;;;;;;;4.75;2.00;;;;;10.21;100.00;102563.38;5122899;27;46590;-68
2023/02/01 09:15:12;;;;;;;;;3.75;1.00;;;;;10.24;100.00;102563.53;5124457;27;57770;-68
2023/02/01 09:17:38;;;;;;;;;6.75;2.00;;;;;10.26;100.00;102561.84;5136971;27;45493;-68
2023/02/01 09:20:04;;;;;;;;;2.25;2.25;;;;;10.32;100.00;102570.00;5129898;27;45231;-68
2023/02/01 09:22:29;;;;;;;;;3.00;3.00;;;;;10.35;100.00;102570.16;5136668;27;47513;-68
2023/02/01 09:24:55;;;;;;;;;5.50;2.00;;;;;10.38;100.00;102582.56;5112347;27;56104;-69
2023/02/01 09:27:20;;;;;;;;;6.25;3.25;;;;;10.41;100.00;102586.22;5132647;27;45681;-69
2023/02/01 09:29:49;;;;;;;;;2.50;1.75;;;;;10.43;100.00;102591.56;5131051;27;45604;-69
2023/02/01 09:32:15;;;;;;;;;6.75;2.75;;;;;10.45;100.00;102597.81;5120861;27;46509;-69
2023/02/01 09:34:40;;;;;;;;;2.00;1.75;;;;;10.46;100.00;102608.44;5116227;27;45458;-68
2023/02/01 09:37:05;;;;;;;;;4.75;2.00;;;;;10.46;100.00;102615.47;5130116;27;55724;-69
2023/02/01 09:39:31;;;;;;;;;2.75;1.00;;;;;10.49;100.00;102623.50;5129139;27;45409;-69
2023/02/01 09:42:05;;;;;;;;;7.75;2.25;;;;;10.49;100.00;102623.50;5124069;27;46655;-68
2023/02/01 09:44:47;;;;;;;;;6.50;2.25;;;;;10.45;100.00;102622.50;5133254;27;45536;-69
2023/02/01 09:47:15;;;;;;;;;7.00;3.00;;;;;10.40;100.00;102626.69;5133862;27;45927;-68
2023/02/01 09:49:56;;;;;;;;;6.00;1.25;;;;;10.40;100.00;102631.97;5130900;27;45394;-69
2023/02/01 09:52:28;;;;;;;;;5.25;2.00;;;;;10.41;100.00;102628.47;5130083;27;47665;-68
2023/02/01 09:55:00;;;;;;;;;3.75;2.00;;;;;10.44;100.00;102618.06;5114953;27;45573;-68
2023/02/01 09:57:37;;;;;;;;;2.00;2.00;;;;;10.49;100.00;102620.84;5101680;27;45655;-69
2023/02/01 10:00:18;;;;;;;;;4.50;2.00;;;;;10.50;100.00;102612.13;5134266;27;45444;-69
2023/02/01 10:02:43;;;;;;;;;7.25;2.00;;;;;10.55;100.00;102612.31;5118470;27;46012;-69
2023/02/01 10:05:14;;;;;;;;;3.00;2.00;;;;;10.60;100.00;102626.56;5110852;27;45354;-68
2023/02/01 10:07:55;;;;;;;;;6.50;2.25;;;;;10.65;100.00;102625.00;5135638;27;45511;-69
2023/02/01 10:10:38;;;;;;;;;3.75;2.00;;;;;10.73;100.00;102615.66;5124153;27;45172;-69
2023/02/01 10:13:23;;;;;;;;;7.00;2.00;;;;;10.80;100.00;102609.75;5108897;27;47197;-68
2023/02/01 10:16:21;;;;;;;;;6.25;3.00;;;;;10.81;100.00;102611.53;5116151;27;45410;-68
2023/02/01 10:19:05;;;;;;;;;2.25;2.00;;;;;10.78;100.00;102602.63;5124326;27;45538;-68
2023/02/01 10:21:30;;;;;;;;;3.50;2.00;;;;;10.71;100.00;102599.75;5121458;27;45419;-68
2023/02/01 10:23:55;;;;;;;;;6.00;3.00;;;;;10.65;100.00;102615.38;5115823;27;45555;-69
2023/02/01 10:26:26;;;;;;;;;4.33;2.00;;;;;10.64;100.00;102610.91;5136377;27;45522;-68
2023/02/01 10:29:04;;;;;;;;;8.75;2.25;;;;;10.67;100.00;102616.31;5116707;27;45504;-67
2023/02/01 10:31:35;;;;;;;;;3.67;1.33;;;;;10.67;100.00;102624.25;5135138;27;45571;-68
2023/02/01 10:34:12;;;;;;;;;4.00;2.00;;;;;10.66;100.00;102616.28;5117309;27;47624;-69
2023/02/01 10:36:47;;;;;;;;;3.67;1.33;;;;;10.63;100.00;102608.22;5118437;27;45532;-69
2023/02/01 10:39:14;;;;;;;;;7.33;3.00;;;;;10.65;100.00;102611.78;5113290;27;45334;-69
2023/02/01 10:41:40;;;;;;;;;6.25;2.00;;;;;10.73;100.00;102610.38;5115757;27;45542;-69
2023/02/01 10:44:14;;;;;;;;;6.75;4.25;;;;;10.78;100.00;102599.97;5120879;27;46118;-69
2023/02/01 10:46:40;;;;;;;;;3.25;1.00;;;;;10.77;100.00;102599.09;5089890;27;45943;-69
2023/02/01 10:49:12;;;;;;;;;6.75;3.00;;;;;10.76;100.00;102610.50;5110614;27;45510;-69
2023/02/01 10:52:51;;;;;;;;;3.00;2.00;;;;;10.81;100.00;102610.66;5126917;27;45872;-69
2023/02/01 10:55:37;;;;;;;;;1.00;1.00;;;;;10.83;100.00;102603.72;4974689;28;45891;-69
2023/02/01 10:58:10;;;;;;;;;7.25;3.25;;;;;10.87;100.00;102598.59;5061869;28;45469;-69
2023/02/01 11:00:44;;;;;;;;;6.00;2.67;;;;;10.92;100.00;102599.69;5089173;27;45471;-69
2023/02/01 11:03:21;;;;;;;;;3.50;2.75;;;;;11.05;100.00;102600.13;5106129;27;45316;-68
2023/02/01 11:05:48;;;;;;;;;4.50;2.00;;;;;11.14;100.00;102597.84;5128324;27;47307;-68
2023/02/01 11:08:16;;;;;;;;;4.33;2.00;;;;;11.23;100.00;102599.03;5131589;27;45360;-68
2023/02/01 11:10:42;;;;;;;;;3.33;1.00;;;;;11.34;100.00;102596.78;5121918;27;45487;-69
2023/02/01 11:13:16;;;;;;;;;2.00;2.00;;;;;11.46;100.00;102585.78;5132276;27;60536;-68
2023/02/01 11:15:46;;;;;;;;;2.00;2.00;;;;;11.59;100.00;102595.03;5115901;27;47487;-68
2023/02/01 11:18:17;;;;;;;;;3.00;2.00;;;;;11.65;100.00;102589.94;5132813;27;45524;-68
2023/02/01 11:20:43;;;;;;;;;7.33;5.00;;;;;11.72;100.00;102577.00;5122640;27;45397;-69
2023/02/01 11:23:16;;;;;;;;;4.67;2.00;;;;;11.79;100.00;102588.69;5117846;27;45446;-67
2023/02/01 11:25:54;;;;;;;;;8.00;3.00;;;;;11.80;100.00;102595.78;5098361;27;46573;-67
2023/02/01 11:28:23;;;;;;;;;5.00;3.00;;;;;11.81;100.00;102602.84;5124932;27;45548;-67
2023/02/01 11:30:48;;;;;;;;;3.00;1.00;;;;;11.81;100.00;102600.22;5133411;27;45943;-68
2023/02/01 11:33:17;;;;;;;;;6.67;2.67;;;;;11.77;100.00;102596.59;5109335;27;45265;-68
2023/02/01 11:35:44;;;;;;;;;3.33;2.00;;;;;11.77;100.00;102591.28;5101027;27;46522;-69
2023/02/01 11:38:30;;;;;;;;;4.00;2.00;;;;;11.78;100.00;102586.91;5130279;27;45289;-68
2023/02/01 11:40:55;;;;;;;;;10.33;3.00;;;;;11.83;100.00;102577.41;5111050;27;45421;-68
2023/02/01 11:43:28;;;;;;;;;4.33;1.33;;;;;11.90;100.00;102576.75;5098615;27;45613;-68
2023/02/01 11:46:24;;;;;;;;;7.67;3.67;;;;;11.91;100.00;102594.41;5131721;27;68511;-69
2023/02/01 11:48:49;;;;;;;;;8.33;2.00;;;;;11.93;100.00;102576.88;5132605;27;45375;-69
2023/02/01 11:51:23;;;;;;;;;3.67;3.00;;;;;11.98;100.00;102587.56;5133729;27;45306;-69
2023/02/01 11:54:23;;;;;;;;;2.00;2.00;;;;;12.00;100.00;102584.16;5128035;27;45606;-69